Time;durP1;ratioP1;P1;durP2;ratioP2;P2;SDS_P1;SDS_P2;PMS_P1;PMS_P2;Temp;Humidity;BMP_temperature;BMP_pressure;BME280_temperature;BME280_humidity;BME280_pressure;Samples;Min_cycle;Max_cycle;Signal;HPM_P1;HPM_P2
2022/04/12 00:01:41;;;;;;;1.30;1.20;;;;;;;;;;5073270;28;20414;-73
2022/04/12 00:04:07;;;;;;;1.47;1.47;;;;;;;;;;5073288;28;20436;-74
2022/04/12 00:06:33;;;;;;;2.00;1.90;;;;;;;;;;5073178;28;20939;-73
2022/04/12 00:08:59;;;;;;;2.77;1.60;;;;;;;;;;5073479;28;20418;-73
2022/04/12 00:11:25;;;;;;;3.07;1.60;;;;;;;;;;5073489;28;20487;-73
2022/04/12 00:13:52;;;;;;;1.70;1.60;;;;;;;;;;5073165;28;20474;-72
2022/04/12 00:16:17;;;;;;;3.30;1.40;;;;;;;;;;5074143;28;20425;-72
2022/04/12 00:21:28;;;;;;;2.00;1.90;;;;;;;;;;5073736;28;20923;-73
2022/04/12 00:23:57;;;;;;;1.70;1.70;;;;;;;;;;5073083;28;20934;-72
2022/04/12 00:26:23;;;;;;;1.73;1.63;;;;;;;;;;5073243;28;20800;-74
2022/04/12 00:28:49;;;;;;;1.97;1.87;;;;;;;;;;5072992;28;20449;-74
2022/04/12 00:31:15;;;;;;;2.00;1.90;;;;;;;;;;5073388;28;20514;-73
2022/04/12 00:33:41;;;;;;;1.50;1.50;;;;;;;;;;5054728;28;20488;-73
2022/04/12 00:36:09;;;;;;;1.40;1.30;;;;;;;;;;5073309;28;20414;-75
2022/04/12 00:38:35;;;;;;;1.47;1.47;;;;;;;;;;5073001;28;20425;-74
2022/04/12 00:41:02;;;;;;;1.70;1.70;;;;;;;;;;5072818;28;20928;-74
2022/04/12 00:46:31;;;;;;;4.93;1.43;;;;;;;;;;5072879;28;20397;-74
2022/04/12 00:48:57;;;;;;;3.03;1.20;;;;;;;;;;5072659;28;20421;-72
2022/04/12 00:51:24;;;;;;;1.07;1.07;;;;;;;;;;5073150;28;20474;-73
2022/04/12 00:53:50;;;;;;;1.40;1.40;;;;;;;;;;5077103;28;20417;-74
2022/04/12 00:56:17;;;;;;;1.23;1.13;;;;;;;;;;5076678;28;20409;-73
2022/04/12 00:58:46;;;;;;;1.60;1.60;;;;;;;;;;5076732;28;20409;-73
2022/04/12 01:01:12;;;;;;;1.90;1.53;;;;;;;;;;5077134;28;20417;-72
2022/04/12 01:03:38;;;;;;;1.43;1.33;;;;;;;;;;5076572;28;20409;-75
2022/04/12 01:06:04;;;;;;;1.80;1.30;;;;;;;;;;5076508;28;20516;-75
2022/04/12 01:08:30;;;;;;;1.60;1.60;;;;;;;;;;5076785;28;20505;-77
2022/04/12 01:10:58;;;;;;;1.00;1.00;;;;;;;;;;5076350;28;20535;-74
2022/04/12 01:13:24;;;;;;;1.23;1.13;;;;;;;;;;5076562;28;20514;-75
2022/04/12 01:15:50;;;;;;;1.27;1.20;;;;;;;;;;5076259;28;20449;-74
2022/04/12 01:18:16;;;;;;;1.30;1.30;;;;;;;;;;5076581;28;20418;-77
2022/04/12 01:20:42;;;;;;;1.30;1.30;;;;;;;;;;5076479;28;20780;-75
2022/04/12 01:23:31;;;;;;;1.23;1.20;;;;;;;;;;5076193;28;20512;-76
2022/04/12 01:25:58;;;;;;;2.50;1.33;;;;;;;;;;5076415;28;20772;-73
2022/04/12 01:28:24;;;;;;;1.23;0.97;;;;;;;;;;5076415;28;20464;-73
2022/04/12 01:30:51;;;;;;;1.73;1.50;;;;;;;;;;5076123;28;20492;-75
2022/04/12 01:33:17;;;;;;;1.63;1.53;;;;;;;;;;5075743;28;20499;-76
2022/04/12 01:35:43;;;;;;;1.70;1.70;;;;;;;;;;5076244;28;20747;-74
2022/04/12 01:38:09;;;;;;;5.90;1.67;;;;;;;;;;5075910;28;20839;-74
2022/04/12 01:40:35;;;;;;;2.30;1.43;;;;;;;;;;5075961;28;20881;-74
2022/04/12 01:43:01;;;;;;;1.27;1.27;;;;;;;;;;5075902;28;20413;-75
2022/04/12 01:45:27;;;;;;;1.80;1.80;;;;;;;;;;5076005;28;20920;-73
2022/04/12 01:47:53;;;;;;;1.80;1.70;;;;;;;;;;5075779;28;20418;-74
2022/04/12 01:50:19;;;;;;;1.80;1.70;;;;;;;;;;5075935;28;20413;-74
2022/04/12 01:52:45;;;;;;;2.70;1.60;;;;;;;;;;5075718;28;20421;-74
2022/04/12 01:55:11;;;;;;;1.70;1.60;;;;;;;;;;5075766;28;20454;-73
2022/04/12 01:57:37;;;;;;;1.27;1.17;;;;;;;;;;5075835;28;20414;-73
2022/04/12 02:00:04;;;;;;;2.33;2.13;;;;;;;;;;5075509;28;20440;-74
2022/04/12 02:02:30;;;;;;;1.40;1.30;;;;;;;;;;5075178;28;20947;-75
2022/04/12 02:04:56;;;;;;;1.33;1.33;;;;;;;;;;5075712;28;20418;-77
2022/04/12 02:07:22;;;;;;;1.30;1.30;;;;;;;;;;5075506;28;20418;-74
2022/04/12 02:09:48;;;;;;;5.30;1.83;;;;;;;;;;5075646;28;20772;-75
2022/04/12 02:12:14;;;;;;;1.50;1.40;;;;;;;;;;5075353;28;20465;-74
2022/04/12 02:14:40;;;;;;;6.70;2.00;;;;;;;;;;5075307;28;20990;-75
2022/04/12 02:17:06;;;;;;;1.83;1.77;;;;;;;;;;5075108;28;20530;-75
2022/04/12 02:19:32;;;;;;;1.40;1.40;;;;;;;;;;5075242;28;20412;-74
2022/04/12 02:21:58;;;;;;;1.80;1.70;;;;;;;;;;5075187;28;20500;-74
2022/04/12 02:24:24;;;;;;;2.00;1.90;;;;;;;;;;5075014;28;20410;-75
2022/04/12 02:26:50;;;;;;;4.63;1.40;;;;;;;;;;5074964;28;20420;-76
2022/04/12 02:29:16;;;;;;;2.93;2.00;;;;;;;;;;5075257;28;20767;-76
2022/04/12 02:31:42;;;;;;;2.50;2.00;;;;;;;;;;5074680;28;20473;-75
2022/04/12 02:34:09;;;;;;;5.30;1.67;;;;;;;;;;5075225;28;20406;-74
2022/04/12 02:36:35;;;;;;;1.67;1.67;;;;;;;;;;5075121;28;20425;-77
2022/04/12 02:39:01;;;;;;;1.83;1.73;;;;;;;;;;5075037;28;20442;-74
2022/04/12 02:41:27;;;;;;;2.00;1.80;;;;;;;;;;5074680;28;20422;-74
2022/04/12 02:43:53;;;;;;;2.60;1.33;;;;;;;;;;5074960;28;20475;-73
2022/04/12 02:46:19;;;;;;;1.53;1.53;;;;;;;;;;5074644;28;20410;-74
2022/04/12 02:48:45;;;;;;;1.57;1.53;;;;;;;;;;5074488;28;20429;-73
2022/04/12 02:51:11;;;;;;;2.40;1.20;;;;;;;;;;5074722;28;20473;-74
2022/04/12 02:53:37;;;;;;;2.57;2.43;;;;;;;;;;5074743;28;20427;-72
2022/04/12 02:56:03;;;;;;;1.60;1.50;;;;;;;;;;5074676;28;20500;-74
2022/04/12 02:58:29;;;;;;;2.90;2.60;;;;;;;;;;5074725;28;20433;-73
2022/04/12 03:00:55;;;;;;;1.33;1.33;;;;;;;;;;5074595;28;20418;-74
2022/04/12 03:03:21;;;;;;;1.90;1.80;;;;;;;;;;5074767;28;20979;-74
2022/04/12 03:05:47;;;;;;;3.30;1.73;;;;;;;;;;5074138;28;20417;-73
2022/04/12 03:08:13;;;;;;;2.20;1.07;;;;;;;;;;5074276;28;20437;-74
2022/04/12 03:10:38;;;;;;;1.47;1.37;;;;;;;;;;5073974;28;20445;-74
2022/04/12 03:13:04;;;;;;;1.90;1.60;;;;;;;;;;5074147;28;20937;-75
2022/04/12 03:15:30;;;;;;;1.83;1.73;;;;;;;;;;5073731;28;20456;-74
2022/04/12 03:17:56;;;;;;;1.10;1.10;;;;;;;;;;5074005;28;20455;-74
2022/04/12 03:20:22;;;;;;;1.67;1.67;;;;;;;;;;5074577;28;20579;-76
2022/04/12 03:22:48;;;;;;;2.63;1.57;;;;;;;;;;5073899;28;20418;-73
2022/04/12 03:25:14;;;;;;;2.60;1.70;;;;;;;;;;5074088;28;20421;-75
2022/04/12 03:27:40;;;;;;;2.00;1.90;;;;;;;;;;5074122;28;20829;-74
2022/04/12 03:30:07;;;;;;;2.40;2.30;;;;;;;;;;5074120;28;20960;-72
2022/04/12 03:32:33;;;;;;;2.20;2.10;;;;;;;;;;5055589;28;20493;-73
2022/04/12 03:34:59;;;;;;;3.50;2.40;;;;;;;;;;5073917;28;20406;-74
2022/04/12 03:37:24;;;;;;;9.10;6.73;;;;;;;;;;5073865;28;20425;-75
2022/04/12 03:39:51;;;;;;;20.00;8.50;;;;;;;;;;5073633;28;20413;-74
2022/04/12 03:42:18;;;;;;;7.97;5.97;;;;;;;;;;5073579;28;20421;-72
2022/04/12 03:44:45;;;;;;;4.97;4.47;;;;;;;;;;5073556;28;20410;-73
2022/04/12 03:47:11;;;;;;;4.53;3.97;;;;;;;;;;5073406;28;20916;-73
2022/04/12 03:49:37;;;;;;;3.50;2.30;;;;;;;;;;5073782;28;20483;-74
2022/04/12 03:52:03;;;;;;;2.33;2.23;;;;;;;;;;5055542;28;20481;-72
2022/04/12 03:54:29;;;;;;;1.93;1.80;;;;;;;;;;5073430;28;20413;-73
2022/04/12 03:56:55;;;;;;;2.73;1.50;;;;;;;;;;5073526;28;20452;-73
2022/04/12 03:59:21;;;;;;;1.50;1.50;;;;;;;;;;5073374;28;20414;-73
2022/04/12 04:01:49;;;;;;;1.63;1.47;;;;;;;;;;5073135;28;20790;-72
2022/04/12 04:04:15;;;;;;;1.87;1.87;;;;;;;;;;5073510;28;20436;-72
2022/04/12 04:06:41;;;;;;;2.30;1.80;;;;;;;;;;5073154;28;20793;-73
2022/04/12 04:09:07;;;;;;;1.87;1.80;;;;;;;;;;5073217;28;20770;-72
2022/04/12 04:11:33;;;;;;;1.40;1.40;;;;;;;;;;5072969;28;20480;-73
2022/04/12 04:14:03;;;;;;;2.87;1.57;;;;;;;;;;5073057;28;20405;-73
2022/04/12 04:16:29;;;;;;;1.63;1.53;;;;;;;;;;5073400;28;20424;-72
2022/04/12 04:18:55;;;;;;;4.20;2.23;;;;;;;;;;5073230;28;20413;-73
2022/04/12 04:21:22;;;;;;;9.70;2.70;;;;;;;;;;5073345;28;20924;-72
2022/04/12 04:23:47;;;;;;;4.00;2.60;;;;;;;;;;5073244;28;20491;-73
2022/04/12 04:26:13;;;;;;;1.60;1.60;;;;;;;;;;5073177;28;20503;-72
2022/04/12 04:28:42;;;;;;;2.33;1.93;;;;;;;;;;5073528;28;20417;-74
2022/04/12 04:31:08;;;;;;;3.10;2.03;;;;;;;;;;5073203;28;20632;-73
2022/04/12 04:33:34;;;;;;;2.83;2.20;;;;;;;;;;5072696;28;21014;-74
2022/04/12 04:36:00;;;;;;;2.87;2.10;;;;;;;;;;5072875;28;20409;-75
2022/04/12 04:38:26;;;;;;;2.27;2.17;;;;;;;;;;5073149;28;20902;-76
2022/04/12 04:40:52;;;;;;;2.30;2.20;;;;;;;;;;5072807;28;20779;-73
2022/04/12 04:43:18;;;;;;;3.80;1.90;;;;;;;;;;5072773;28;20416;-73
2022/04/12 04:45:44;;;;;;;2.63;2.53;;;;;;;;;;5072705;28;20496;-76
2022/04/12 04:48:10;;;;;;;2.27;2.27;;;;;;;;;;5072899;28;20445;-73
2022/04/12 04:50:36;;;;;;;2.60;2.40;;;;;;;;;;5072993;28;20476;-73
2022/04/12 04:53:03;;;;;;;1.90;1.80;;;;;;;;;;5072718;28;20425;-75
2022/04/12 04:55:30;;;;;;;2.10;2.00;;;;;;;;;;5072606;28;20436;-73
2022/04/12 04:57:56;;;;;;;1.70;1.70;;;;;;;;;;5072713;28;20417;-74
2022/04/12 05:00:25;;;;;;;1.90;1.60;;;;;;;;;;5072945;28;20413;-76
2022/04/12 05:02:53;;;;;;;2.40;1.43;;;;;;;;;;5072863;28;20508;-73
2022/04/12 05:05:19;;;;;;;1.93;1.83;;;;;;;;;;5072514;28;20471;-72
2022/04/12 05:07:46;;;;;;;1.70;1.70;;;;;;;;;;5072819;28;20467;-72
2022/04/12 05:10:13;;;;;;;1.63;1.63;;;;;;;;;;5072480;28;20421;-72
2022/04/12 05:12:39;;;;;;;2.93;2.60;;;;;;;;;;5072404;28;20552;-72
2022/04/12 05:15:05;;;;;;;1.73;1.70;;;;;;;;;;5054537;28;20567;-73
2022/04/12 05:17:31;;;;;;;2.53;2.23;;;;;;;;;;5072460;28;20432;-72
2022/04/12 05:19:58;;;;;;;6.67;2.47;;;;;;;;;;5072384;28;20413;-73
2022/04/12 05:22:24;;;;;;;7.93;2.00;;;;;;;;;;5072538;28;20563;-73
2022/04/12 05:24:50;;;;;;;3.60;1.50;;;;;;;;;;5072391;28;20761;-76
2022/04/12 05:27:17;;;;;;;2.60;1.93;;;;;;;;;;5072442;28;20414;-74
2022/04/12 05:29:43;;;;;;;2.53;2.37;;;;;;;;;;5072623;28;20441;-75
2022/04/12 05:32:10;;;;;;;3.17;2.40;;;;;;;;;;5072275;28;20483;-73
2022/04/12 05:34:39;;;;;;;3.47;2.40;;;;;;;;;;5072559;28;20440;-73
2022/04/12 05:37:05;;;;;;;6.13;2.50;;;;;;;;;;5072257;28;20449;-73
2022/04/12 05:39:31;;;;;;;6.40;2.50;;;;;;;;;;5058205;28;20937;-76
2022/04/12 05:42:00;;;;;;;3.40;2.93;;;;;;;;;;5076504;28;20972;-72
2022/04/12 05:44:26;;;;;;;4.53;3.00;;;;;;;;;;5075737;28;20513;-72
2022/04/12 05:46:52;;;;;;;5.00;4.33;;;;;;;;;;5076046;28;20425;-72
2022/04/12 05:49:18;;;;;;;3.60;3.37;;;;;;;;;;5075775;28;20475;-73
2022/04/12 05:51:44;;;;;;;4.83;4.53;;;;;;;;;;5075315;28;20534;-72
2022/04/12 05:54:10;;;;;;;3.93;3.63;;;;;;;;;;5075706;28;20413;-72
2022/04/12 05:56:36;;;;;;;4.83;3.77;;;;;;;;;;5075565;28;20431;-74
2022/04/12 05:59:02;;;;;;;3.40;3.20;;;;;;;;;;5075597;28;20441;-73
2022/04/12 06:01:28;;;;;;;4.17;3.80;;;;;;;;;;5075300;28;20467;-73
2022/04/12 06:03:54;;;;;;;4.30;3.90;;;;;;;;;;5075383;28;20497;-72
2022/04/12 06:06:20;;;;;;;6.07;3.80;;;;;;;;;;5057310;28;20573;-73
2022/04/12 06:08:46;;;;;;;3.83;3.53;;;;;;;;;;5075476;28;20425;-73
2022/04/12 06:11:12;;;;;;;4.80;4.50;;;;;;;;;;5075163;28;20568;-73
2022/04/12 06:13:38;;;;;;;3.73;3.43;;;;;;;;;;5075512;28;20471;-73
2022/04/12 06:16:04;;;;;;;3.20;3.00;;;;;;;;;;5075310;28;20924;-74
2022/04/12 06:18:30;;;;;;;4.87;2.70;;;;;;;;;;5075469;28;20409;-73
2022/04/12 06:20:56;;;;;;;2.40;2.30;;;;;;;;;;5075154;28;20417;-76
2022/04/12 06:23:22;;;;;;;2.50;2.40;;;;;;;;;;5075426;28;20418;-76
2022/04/12 06:25:48;;;;;;;3.03;2.17;;;;;;;;;;5075228;28;20426;-76
2022/04/12 06:28:14;;;;;;;7.43;2.60;;;;;;;;;;5075316;28;20424;-74
2022/04/12 06:30:40;;;;;;;9.43;4.90;;;;;;;;;;5074734;28;20421;-75
2022/04/12 06:33:07;;;;;;;9.07;6.20;;;;;;;;;;5074700;28;20516;-76
2022/04/12 06:35:33;;;;;;;10.90;6.30;;;;;;;;;;5074820;28;20500;-74
2022/04/12 06:37:59;;;;;;;7.07;4.73;;;;;;;;;;5074783;28;20464;-73
2022/04/12 06:40:25;;;;;;;2.90;2.80;;;;;;;;;;5074917;28;20776;-74
2022/04/12 06:42:52;;;;;;;2.90;2.80;;;;;;;;;;5074568;28;20420;-75
2022/04/12 06:45:18;;;;;;;3.53;2.43;;;;;;;;;;5056602;28;20771;-72
2022/04/12 06:47:44;;;;;;;2.70;2.60;;;;;;;;;;5074726;28;20438;-75
2022/04/12 06:50:11;;;;;;;2.53;2.43;;;;;;;;;;5055665;28;20425;-72
2022/04/12 06:52:37;;;;;;;4.10;2.70;;;;;;;;;;5074241;28;20568;-75
2022/04/12 06:55:04;;;;;;;2.40;2.30;;;;;;;;;;5074069;28;20499;-76
2022/04/12 06:57:33;;;;;;;2.60;2.20;;;;;;;;;;5073242;28;20422;-73
2022/04/12 06:59:59;;;;;;;3.63;2.43;;;;;;;;;;5074228;28;20427;-72
2022/04/12 07:02:25;;;;;;;3.07;2.97;;;;;;;;;;5074406;28;20422;-71
2022/04/12 07:04:51;;;;;;;2.57;2.40;;;;;;;;;;5074097;28;20405;-75
2022/04/12 07:07:17;;;;;;;2.50;1.57;;;;;;;;;;5074289;28;20462;-73
2022/04/12 07:09:43;;;;;;;2.67;2.30;;;;;;;;;;5073819;28;20409;-73
2022/04/12 07:12:10;;;;;;;2.40;2.30;;;;;;;;;;5056174;28;20607;-75
2022/04/12 07:14:36;;;;;;;1.93;1.93;;;;;;;;;;5056020;28;20418;-73
2022/04/12 07:17:03;;;;;;;3.60;2.20;;;;;;;;;;5074253;28;20418;-72
2022/04/12 07:19:29;;;;;;;3.33;2.50;;;;;;;;;;5073904;28;20421;-74
2022/04/12 07:21:55;;;;;;;2.17;2.07;;;;;;;;;;5073845;28;20459;-73
2022/04/12 07:24:21;;;;;;;5.87;2.80;;;;;;;;;;5073866;28;20417;-71
2022/04/12 07:26:47;;;;;;;3.83;3.63;;;;;;;;;;5073765;28;20426;-71
2022/04/12 07:29:13;;;;;;;1.87;1.87;;;;;;;;;;5073739;28;20417;-73
2022/04/12 07:31:39;;;;;;;2.83;2.33;;;;;;;;;;5073721;28;20548;-74
2022/04/12 07:34:07;;;;;;;5.23;2.63;;;;;;;;;;5074025;28;20444;-74
2022/04/12 07:36:33;;;;;;;2.70;2.60;;;;;;;;;;5073802;28;20436;-71
2022/04/12 07:38:59;;;;;;;3.57;2.40;;;;;;;;;;5055746;28;20917;-73
2022/04/12 07:41:25;;;;;;;7.07;2.30;;;;;;;;;;5055450;28;20422;-71
2022/04/12 07:43:52;;;;;;;3.13;2.92;;;;;;;;;;5072677;28;20436;-72
2022/04/12 07:46:19;;;;;;;3.33;3.23;;;;;;;;;;5073562;28;20179;-72
2022/04/12 07:48:45;;;;;;;3.90;3.60;;;;;;;;;;5073306;28;20888;-72
2022/04/12 07:51:11;;;;;;;2.33;2.33;;;;;;;;;;5073769;28;20547;-70
2022/04/12 07:53:37;;;;;;;3.00;2.90;;;;;;;;;;5073621;28;20417;-72
2022/04/12 07:56:03;;;;;;;3.40;2.80;;;;;;;;;;5073189;28;20791;-71
2022/04/12 07:58:29;;;;;;;3.90;3.70;;;;;;;;;;5073211;28;20474;-73
2022/04/12 08:00:55;;;;;;;3.50;3.30;;;;;;;;;;5073097;28;20897;-74
2022/04/12 08:03:21;;;;;;;2.83;2.80;;;;;;;;;;5073702;28;20417;-74
2022/04/12 08:05:51;;;;;;;2.73;2.60;;;;;;;;;;5073109;28;20410;-73
2022/04/12 08:08:17;;;;;;;3.80;3.50;;;;;;;;;;5073209;28;20464;-76
2022/04/12 08:10:43;;;;;;;10.83;2.93;;;;;;;;;;5054907;28;20941;-73
2022/04/12 08:13:09;;;;;;;5.27;2.63;;;;;;;;;;5073334;28;20418;-71
2022/04/12 08:15:36;;;;;;;1.53;1.53;;;;;;;;;;5072886;28;20456;-73
2022/04/12 08:18:02;;;;;;;6.53;2.73;;;;;;;;;;5054936;28;20425;-75
2022/04/12 08:20:28;;;;;;;5.47;2.20;;;;;;;;;;5054777;28;20443;-72
2022/04/12 08:22:56;;;;;;;10.43;2.00;;;;;;;;;;5072838;28;20508;-75
2022/04/12 08:25:22;;;;;;;2.07;1.97;;;;;;;;;;5073294;28;20500;-71
2022/04/12 08:27:48;;;;;;;3.07;1.83;;;;;;;;;;5072926;28;20417;-71
2022/04/12 08:30:14;;;;;;;0.93;0.93;;;;;;;;;;5055030;28;20425;-73
2022/04/12 08:32:40;;;;;;;1.43;1.43;;;;;;;;;;5072857;28;20485;-71
2022/04/12 08:35:06;;;;;;;1.83;1.83;;;;;;;;;;5073599;28;20417;-73
2022/04/12 08:37:32;;;;;;;1.70;1.47;;;;;;;;;;5072985;28;20500;-72
2022/04/12 08:39:58;;;;;;;6.10;2.13;;;;;;;;;;5054850;28;21007;-72
2022/04/12 08:42:24;;;;;;;8.97;1.73;;;;;;;;;;5073097;28;20406;-75
2022/04/12 08:44:51;;;;;;;1.83;1.70;;;;;;;;;;5072804;28;20504;-74
2022/04/12 08:47:18;;;;;;;1.83;1.73;;;;;;;;;;5073078;28;20409;-74
2022/04/12 08:49:44;;;;;;;1.20;1.20;;;;;;;;;;5072594;28;20413;-72
2022/04/12 08:52:11;;;;;;;7.63;3.20;;;;;;;;;;5072532;28;20473;-73
2022/04/12 08:54:38;;;;;;;9.30;3.50;;;;;;;;;;5073357;28;20428;-75
2022/04/12 08:57:04;;;;;;;2.20;1.70;;;;;;;;;;5072886;28;20418;-72
2022/04/12 08:59:30;;;;;;;2.43;2.13;;;;;;;;;;5072694;28;20852;-73
2022/04/12 09:01:57;;;;;;;2.27;2.17;;;;;;;;;;5072095;28;20437;-72
2022/04/12 09:04:26;;;;;;;4.47;1.80;;;;;;;;;;5073002;28;20584;-73
2022/04/12 09:06:53;;;;;;;2.40;2.23;;;;;;;;;;5072620;28;20445;-72
2022/04/12 09:09:23;;;;;;;1.83;1.80;;;;;;;;;;5073125;28;20965;-72
2022/04/12 09:12:00;;;;;;;3.50;2.80;;;;;;;;;;5072784;28;20957;-76
2022/04/12 09:14:35;;;;;;;2.93;2.30;;;;;;;;;;5076312;28;21035;-76
2022/04/12 09:17:02;;;;;;;1.90;1.80;;;;;;;;;;5076925;28;20393;-72
2022/04/12 09:19:38;;;;;;;2.80;2.70;;;;;;;;;;5076405;28;20813;-73
2022/04/12 09:22:10;;;;;;;1.97;1.87;;;;;;;;;;5076460;28;20405;-76
2022/04/12 09:24:37;;;;;;;4.03;2.00;;;;;;;;;;5076243;28;20437;-72
2022/04/12 09:27:03;;;;;;;6.00;3.10;;;;;;;;;;5076364;28;20417;-74
2022/04/12 09:29:30;;;;;;;3.40;2.50;;;;;;;;;;5076523;28;20437;-72
2022/04/12 09:31:57;;;;;;;2.47;2.37;;;;;;;;;;5075971;28;20493;-71
2022/04/12 09:34:24;;;;;;;3.03;1.77;;;;;;;;;;5076008;28;20456;-76
2022/04/12 09:36:50;;;;;;;2.27;2.17;;;;;;;;;;5076123;28;20467;-72
2022/04/12 09:39:19;;;;;;;5.30;1.67;;;;;;;;;;5076165;28;20411;-72
2022/04/12 09:41:47;;;;;;;1.83;1.73;;;;;;;;;;5075912;28;20508;-73
2022/04/12 09:44:17;;;;;;;1.70;1.70;;;;;;;;;;5075894;28;20410;-75
2022/04/12 09:46:43;;;;;;;4.83;1.80;;;;;;;;;;5076515;28;20414;-75
2022/04/12 09:49:10;;;;;;;5.70;2.00;;;;;;;;;;5076019;28;20417;-75
2022/04/12 09:51:39;;;;;;;2.10;2.00;;;;;;;;;;5075309;28;20469;-77
2022/04/12 09:54:08;;;;;;;2.43;2.33;;;;;;;;;;5075350;28;20812;-77
2022/04/12 09:56:36;;;;;;;1.70;1.70;;;;;;;;;;5075827;28;20417;-73
2022/04/12 09:59:03;;;;;;;1.70;1.70;;;;;;;;;;5075710;28;20428;-73
2022/04/12 10:01:31;;;;;;;3.83;3.57;;;;;;;;;;5075437;28;20951;-72
2022/04/12 10:03:58;;;;;;;5.13;4.73;;;;;;;;;;5075626;28;20421;-74
2022/04/12 10:06:25;;;;;;;2.40;2.30;;;;;;;;;;5075404;28;20413;-72
2022/04/12 10:08:59;;;;;;;1.90;1.90;;;;;;;;;;5075354;28;20927;-72
2022/04/12 10:11:26;;;;;;;1.30;1.30;;;;;;;;;;5075564;28;20479;-72
2022/04/12 10:13:52;;;;;;;2.87;1.93;;;;;;;;;;5075499;28;20425;-73
2022/04/12 10:16:19;;;;;;;10.90;2.13;;;;;;;;;;5075248;28;20763;-73
2022/04/12 10:18:46;;;;;;;3.33;2.07;;;;;;;;;;5057317;28;20414;-73
2022/04/12 10:21:13;;;;;;;1.90;1.90;;;;;;;;;;5074790;28;20917;-72
2022/04/12 10:23:43;;;;;;;2.07;1.97;;;;;;;;;;5074784;28;20424;-74
2022/04/12 10:26:10;;;;;;;1.40;1.40;;;;;;;;;;5057095;28;20451;-75
2022/04/12 10:28:37;;;;;;;1.70;1.70;;;;;;;;;;5074905;28;20418;-72
2022/04/12 10:31:24;;;;;;;1.80;1.70;;;;;;;;;;5056945;28;20465;-72
2022/04/12 10:34:02;;;;;;;2.73;1.20;;;;;;;;;;5074753;28;20492;-77
2022/04/12 10:36:47;;;;;;;1.40;1.40;;;;;;;;;;5074848;28;20753;-75
2022/04/12 10:39:13;;;;;;;2.20;1.30;;;;;;;;;;5056796;28;20425;-73
2022/04/12 10:41:42;;;;;;;1.80;1.70;;;;;;;;;;5075920;28;20442;-73
2022/04/12 10:44:18;;;;;;;8.33;1.40;;;;;;;;;;5074822;28;20501;-72
2022/04/12 10:46:48;;;;;;;2.13;1.27;;;;;;;;;;5074728;28;20443;-74
2022/04/12 10:49:17;;;;;;;1.40;1.40;;;;;;;;;;5074733;28;20932;-72
2022/04/12 10:51:44;;;;;;;1.43;1.43;;;;;;;;;;5074669;28;20461;-74
2022/04/12 10:54:29;;;;;;;1.70;1.70;;;;;;;;;;5074588;28;20425;-73
2022/04/12 10:57:14;;;;;;;1.50;1.43;;;;;;;;;;5074717;28;20421;-74
2022/04/12 10:59:40;;;;;;;3.53;1.40;;;;;;;;;;5074659;28;20806;-73
2022/04/12 11:02:12;;;;;;;0.93;0.93;;;;;;;;;;5074308;28;20416;-73
2022/04/12 11:04:38;;;;;;;1.27;1.27;;;;;;;;;;5074214;28;20447;-73
2022/04/12 11:07:07;;;;;;;0.83;0.83;;;;;;;;;;5074492;28;20418;-72
2022/04/12 11:09:33;;;;;;;4.43;2.10;;;;;;;;;;5074401;28;20408;-73
2022/04/12 11:12:01;;;;;;;1.67;1.57;;;;;;;;;;5074065;28;20473;-72
2022/04/12 11:14:36;;;;;;;1.00;1.00;;;;;;;;;;5074258;28;20413;-73
2022/04/12 11:17:09;;;;;;;3.37;1.93;;;;;;;;;;5074244;28;20943;-73
2022/04/12 11:19:42;;;;;;;1.60;1.60;;;;;;;;;;5056726;28;20414;-74
2022/04/12 11:22:11;;;;;;;1.60;1.53;;;;;;;;;;5074071;28;20508;-75
2022/04/12 11:24:37;;;;;;;4.83;1.80;;;;;;;;;;5074071;28;20429;-74
2022/04/12 11:27:03;;;;;;;4.17;3.87;;;;;;;;;;5073796;28;20437;-73
2022/04/12 11:29:30;;;;;;;1.80;1.80;;;;;;;;;;5074100;28;20422;-73
2022/04/12 11:31:56;;;;;;;2.63;2.10;;;;;;;;;;5073570;28;20489;-75
2022/04/12 11:34:23;;;;;;;2.00;1.90;;;;;;;;;;5073670;28;20401;-73
2022/04/12 11:36:50;;;;;;;1.67;1.67;;;;;;;;;;5073277;28;20461;-75
2022/04/12 11:39:17;;;;;;;1.60;1.60;;;;;;;;;;5073828;28;20426;-75
2022/04/12 11:41:43;;;;;;;1.60;1.50;;;;;;;;;;5073530;28;20510;-74
2022/04/12 11:44:09;;;;;;;1.07;1.07;;;;;;;;;;5073509;28;20445;-73
2022/04/12 11:46:36;;;;;;;2.70;1.30;;;;;;;;;;5073420;28;20496;-73
2022/04/12 11:49:06;;;;;;;1.00;1.00;;;;;;;;;;5073775;28;20453;-75
2022/04/12 11:51:36;;;;;;;0.90;0.90;;;;;;;;;;5072977;28;20465;-74
2022/04/12 11:54:02;;;;;;;1.03;1.00;;;;;;;;;;5073327;28;20838;-74
2022/04/12 11:56:28;;;;;;;4.00;1.00;;;;;;;;;;5055293;28;20464;-74
2022/04/12 11:58:54;;;;;;;6.43;1.40;;;;;;;;;;5073285;28;20418;-74
2022/04/12 12:01:30;;;;;;;1.00;1.00;;;;;;;;;;5073318;28;20418;-73
2022/04/12 12:04:05;;;;;;;6.97;1.77;;;;;;;;;;5073492;28;20455;-73
2022/04/12 12:06:31;;;;;;;1.10;1.10;;;;;;;;;;5073011;28;20413;-75
2022/04/12 12:08:57;;;;;;;1.00;1.00;;;;;;;;;;5073200;28;20417;-73
2022/04/12 12:11:23;;;;;;;3.80;2.03;;;;;;;;;;5073113;28;20473;-74
2022/04/12 12:13:56;;;;;;;5.13;1.47;;;;;;;;;;5072932;28;20435;-76
2022/04/12 12:16:22;;;;;;;1.90;1.77;;;;;;;;;;5073244;28;20456;-76
2022/04/12 12:18:48;;;;;;;2.37;2.20;;;;;;;;;;5074143;28;20459;-76
2022/04/12 12:21:17;;;;;;;1.67;1.67;;;;;;;;;;5072952;28;20414;-76
2022/04/12 12:23:43;;;;;;;4.73;1.70;;;;;;;;;;5073252;28;20414;-74
2022/04/12 12:26:09;;;;;;;1.90;1.00;;;;;;;;;;5073160;28;20471;-74
2022/04/12 12:28:40;;;;;;;1.20;1.20;;;;;;;;;;5072997;28;20418;-74
2022/04/12 12:31:07;;;;;;;1.53;1.40;;;;;;;;;;5073125;28;20468;-74
2022/04/12 12:33:44;;;;;;;1.30;1.30;;;;;;;;;;5072798;28;20527;-74
2022/04/12 12:36:17;;;;;;;1.93;1.50;;;;;;;;;;5073465;28;20394;-76
2022/04/12 12:38:44;;;;;;;4.37;3.83;;;;;;;;;;5072811;28;20921;-76
2022/04/12 12:41:10;;;;;;;5.20;4.77;;;;;;;;;;5073450;28;20463;-73
2022/04/12 12:43:36;;;;;;;1.33;1.33;;;;;;;;;;5072860;28;20533;-74
2022/04/12 12:46:08;;;;;;;2.60;2.50;;;;;;;;;;5073289;28;20972;-73
2022/04/12 12:48:34;;;;;;;2.63;1.17;;;;;;;;;;5075542;28;20410;-74
2022/04/12 12:51:06;;;;;;;1.07;1.07;;;;;;;;;;5076891;28;20463;-74
2022/04/12 12:53:34;;;;;;;1.30;1.20;;;;;;;;;;5076861;28;20751;-73
2022/04/12 12:56:00;;;;;;;0.97;0.97;;;;;;;;;;5077052;28;20397;-76
2022/04/12 12:58:29;;;;;;;2.90;2.80;;;;;;;;;;5076796;28;20420;-77
2022/04/12 13:01:02;;;;;;;2.07;1.70;;;;;;;;;;5076986;28;20409;-73
2022/04/12 13:03:28;;;;;;;1.93;1.93;;;;;;;;;;5076790;28;20456;-76
2022/04/12 13:05:58;;;;;;;0.93;0.93;;;;;;;;;;5076598;28;20406;-74
2022/04/12 13:08:24;;;;;;;1.30;1.27;;;;;;;;;;5077345;28;20393;-74
2022/04/12 13:10:51;;;;;;;1.00;1.00;;;;;;;;;;5076714;28;20420;-74
2022/04/12 13:13:17;;;;;;;1.50;1.40;;;;;;;;;;5076574;28;20500;-73
2022/04/12 13:15:43;;;;;;;5.03;4.63;;;;;;;;;;5076762;28;20452;-74
2022/04/12 13:18:10;;;;;;;1.67;1.60;;;;;;;;;;5076606;28;20430;-77
2022/04/12 13:20:36;;;;;;;1.03;1.03;;;;;;;;;;5076664;28;20415;-76
2022/04/12 13:26:05;;;;;;;0.90;0.90;;;;;;;;;;5076226;28;20395;-77
2022/04/12 13:28:31;;;;;;;1.57;1.47;;;;;;;;;;5076174;28;20571;-76
2022/04/12 13:30:57;;;;;;;0.70;0.70;;;;;;;;;;5076172;28;20416;-76
2022/04/12 13:33:23;;;;;;;1.40;1.40;;;;;;;;;;5075910;28;20468;-76
2022/04/12 13:35:49;;;;;;;6.80;3.70;;;;;;;;;;5076021;28;20432;-74
2022/04/12 13:38:15;;;;;;;2.70;1.83;;;;;;;;;;5076201;28;20424;-75
2022/04/12 13:40:41;;;;;;;1.20;1.20;;;;;;;;;;5075938;28;20428;-73
2022/04/12 13:43:08;;;;;;;0.80;0.80;;;;;;;;;;5076205;28;20414;-74
2022/04/12 13:45:36;;;;;;;1.13;0.97;;;;;;;;;;5075983;28;20409;-73
2022/04/12 13:48:02;;;;;;;5.57;1.03;;;;;;;;;;5057872;28;20417;-75
2022/04/12 13:50:28;;;;;;;1.20;1.20;;;;;;;;;;5076111;28;20488;-74
2022/04/12 13:52:54;;;;;;;1.47;1.47;;;;;;;;;;5075967;28;20472;-76
2022/04/12 13:55:20;;;;;;;6.73;2.13;;;;;;;;;;5075646;28;20744;-76
2022/04/12 13:57:49;;;;;;;1.27;1.27;;;;;;;;;;5075719;28;20529;-76
2022/04/12 14:00:15;;;;;;;0.90;0.90;;;;;;;;;;5075538;28;20419;-74
2022/04/12 14:02:41;;;;;;;1.17;1.17;;;;;;;;;;5075583;28;20421;-73
2022/04/12 14:05:07;;;;;;;1.13;1.13;;;;;;;;;;5075556;28;20463;-74
2022/04/12 14:07:33;;;;;;;5.90;3.83;;;;;;;;;;5075614;28;20425;-74
2022/04/12 14:09:59;;;;;;;2.80;1.33;;;;;;;;;;5075612;28;20414;-74
2022/04/12 14:12:25;;;;;;;4.23;1.27;;;;;;;;;;5075673;28;20469;-73
2022/04/12 14:14:51;;;;;;;1.30;1.30;;;;;;;;;;5075424;28;20409;-75
2022/04/12 14:17:17;;;;;;;4.53;1.20;;;;;;;;;;5075274;28;20505;-74
2022/04/12 14:19:43;;;;;;;2.53;1.30;;;;;;;;;;5075399;28;20424;-74
2022/04/12 14:22:09;;;;;;;1.00;1.00;;;;;;;;;;5075579;28;20921;-75
2022/04/12 14:24:35;;;;;;;4.93;1.50;;;;;;;;;;5075411;28;20422;-74
2022/04/12 14:27:01;;;;;;;0.90;0.90;;;;;;;;;;5075349;28;20413;-76
2022/04/12 14:29:27;;;;;;;0.70;0.70;;;;;;;;;;5075168;28;20425;-74
2022/04/12 14:31:53;;;;;;;1.73;0.60;;;;;;;;;;5074860;28;20969;-75
2022/04/12 14:34:19;;;;;;;4.53;1.10;;;;;;;;;;5057181;28;20429;-76
2022/04/12 14:36:45;;;;;;;1.80;0.60;;;;;;;;;;5075176;28;20457;-76
2022/04/12 14:39:11;;;;;;;0.80;0.80;;;;;;;;;;5074953;28;20850;-76
2022/04/12 14:41:37;;;;;;;5.83;1.00;;;;;;;;;;5074844;28;20789;-76
2022/04/12 14:44:05;;;;;;;1.17;1.07;;;;;;;;;;5074809;28;20775;-76
2022/04/12 14:46:31;;;;;;;1.20;1.20;;;;;;;;;;5075005;28;20508;-77
2022/04/12 14:48:57;;;;;;;6.13;0.87;;;;;;;;;;5075320;28;20413;-76
2022/04/12 14:51:23;;;;;;;1.07;1.07;;;;;;;;;;5074865;28;20476;-75